Altoona, Pennsylvania
Current Conditions -  °F | °C
As of 6:53 PM on Friday 24 Oct 2014 (Local Time) from KAOO Reporting Station
Clear Clear  
Wind Chill: 51°   Ceiling: Unl
Heat Index: 51°   Visibility: 10mi
Dew Point: 38°   Wind: 5mph
Humidity: 61%   Direction: 290°WNW
Pressure: 29.97"   Gusts: NA
Location:  40.51°N, 78.4°W
Report Text: KAOO 242253Z AUTO 29004KT 10SM CLR 11/03 A2997 RMK AO2 SLP151 T01060033
Loading
Personal Weather Stations






























Interactive Weather Map
Tropical Storm Tracking
New forecast layout! Learn more

10-Day Weather Forecast

Advertisements
Track Severe Weather on mobile